sensor_id;sensor_type;location;lat;lon;timestamp;P1;durP1;ratioP1;P2;durP2;ratioP2
11735;SDS011;5924;51.398;7.088;2023-07-16T00:00:57;2.23;;;1.90;;
11735;SDS011;5924;51.398;7.088;2023-07-16T00:03:22;1.77;;;1.67;;
11735;SDS011;5924;51.398;7.088;2023-07-16T00:05:51;2.00;;;1.83;;
11735;SDS011;5924;51.398;7.088;2023-07-16T00:08:17;3.47;;;2.13;;
11735;SDS011;5924;51.398;7.088;2023-07-16T00:10:42;1.80;;;1.70;;
11735;SDS011;5924;51.398;7.088;2023-07-16T00:13:08;2.17;;;1.97;;
11735;SDS011;5924;51.398;7.088;2023-07-16T00:15:34;2.07;;;2.00;;
11735;SDS011;5924;51.398;7.088;2023-07-16T00:17:59;2.80;;;1.97;;
11735;SDS011;5924;51.398;7.088;2023-07-16T00:20:25;2.70;;;2.33;;
11735;SDS011;5924;51.398;7.088;2023-07-16T00:22:51;2.70;;;1.77;;
11735;SDS011;5924;51.398;7.088;2023-07-16T00:25:17;1.93;;;1.80;;
11735;SDS011;5924;51.398;7.088;2023-07-16T00:27:43;2.30;;;2.20;;
11735;SDS011;5924;51.398;7.088;2023-07-16T00:30:08;1.60;;;1.50;;
11735;SDS011;5924;51.398;7.088;2023-07-16T00:32:34;2.13;;;2.00;;
11735;SDS011;5924;51.398;7.088;2023-07-16T00:35:03;3.47;;;1.70;;
11735;SDS011;5924;51.398;7.088;2023-07-16T00:37:29;1.77;;;1.77;;
11735;SDS011;5924;51.398;7.088;2023-07-16T00:39:55;2.30;;;1.97;;
11735;SDS011;5924;51.398;7.088;2023-07-16T00:42:21;1.80;;;1.70;;
11735;SDS011;5924;51.398;7.088;2023-07-16T00:44:46;2.10;;;2.00;;
11735;SDS011;5924;51.398;7.088;2023-07-16T00:47:12;2.50;;;2.30;;
11735;SDS011;5924;51.398;7.088;2023-07-16T00:49:38;2.40;;;2.30;;
11735;SDS011;5924;51.398;7.088;2023-07-16T00:52:04;2.00;;;1.90;;
11735;SDS011;5924;51.398;7.088;2023-07-16T00:54:33;1.77;;;1.67;;
11735;SDS011;5924;51.398;7.088;2023-07-16T00:56:59;1.50;;;1.50;;
11735;SDS011;5924;51.398;7.088;2023-07-16T00:59:24;2.33;;;1.87;;
11735;SDS011;5924;51.398;7.088;2023-07-16T01:01:50;1.80;;;1.70;;
11735;SDS011;5924;51.398;7.088;2023-07-16T01:04:15;2.50;;;1.73;;
11735;SDS011;5924;51.398;7.088;2023-07-16T01:06:43;1.73;;;1.73;;
11735;SDS011;5924;51.398;7.088;2023-07-16T01:09:17;2.40;;;1.90;;
11735;SDS011;5924;51.398;7.088;2023-07-16T01:11:45;2.03;;;1.93;;
11735;SDS011;5924;51.398;7.088;2023-07-16T01:14:12;4.43;;;2.30;;
11735;SDS011;5924;51.398;7.088;2023-07-16T01:16:40;1.60;;;1.50;;
11735;SDS011;5924;51.398;7.088;2023-07-16T01:19:06;1.83;;;1.73;;
11735;SDS011;5924;51.398;7.088;2023-07-16T01:21:40;1.70;;;1.60;;
11735;SDS011;5924;51.398;7.088;2023-07-16T01:32:14;2.07;;;1.97;;
11735;SDS011;5924;51.398;7.088;2023-07-16T01:34:41;2.13;;;2.03;;
11735;SDS011;5924;51.398;7.088;2023-07-16T01:37:08;3.70;;;2.97;;
11735;SDS011;5924;51.398;7.088;2023-07-16T01:39:35;1.87;;;1.87;;
11735;SDS011;5924;51.398;7.088;2023-07-16T01:42:01;3.83;;;2.03;;
11735;SDS011;5924;51.398;7.088;2023-07-16T01:44:27;2.33;;;2.00;;
11735;SDS011;5924;51.398;7.088;2023-07-16T01:49:39;2.00;;;1.90;;
11735;SDS011;5924;51.398;7.088;2023-07-16T01:52:06;2.50;;;2.07;;
11735;SDS011;5924;51.398;7.088;2023-07-16T01:54:34;1.70;;;1.60;;
11735;SDS011;5924;51.398;7.088;2023-07-16T01:57:00;3.67;;;2.23;;
11735;SDS011;5924;51.398;7.088;2023-07-16T01:59:25;1.80;;;1.80;;
11735;SDS011;5924;51.398;7.088;2023-07-16T02:01:51;3.23;;;1.83;;
11735;SDS011;5924;51.398;7.088;2023-07-16T02:04:17;1.70;;;1.70;;
11735;SDS011;5924;51.398;7.088;2023-07-16T02:06:42;1.93;;;1.70;;
11735;SDS011;5924;51.398;7.088;2023-07-16T02:09:08;11.63;;;1.40;;
11735;SDS011;5924;51.398;7.088;2023-07-16T02:11:35;1.87;;;1.50;;
11735;SDS011;5924;51.398;7.088;2023-07-16T02:14:01;1.87;;;1.67;;
11735;SDS011;5924;51.398;7.088;2023-07-16T02:16:26;1.80;;;1.70;;
11735;SDS011;5924;51.398;7.088;2023-07-16T02:18:52;2.00;;;2.00;;
11735;SDS011;5924;51.398;7.088;2023-07-16T02:21:17;2.00;;;1.90;;
11735;SDS011;5924;51.398;7.088;2023-07-16T02:23:43;2.83;;;2.13;;
11735;SDS011;5924;51.398;7.088;2023-07-16T02:26:09;1.83;;;1.77;;
11735;SDS011;5924;51.398;7.088;2023-07-16T02:28:34;5.57;;;2.60;;
11735;SDS011;5924;51.398;7.088;2023-07-16T02:31:00;4.17;;;2.33;;
11735;SDS011;5924;51.398;7.088;2023-07-16T02:33:27;1.53;;;1.53;;
11735;SDS011;5924;51.398;7.088;2023-07-16T02:35:52;3.53;;;1.63;;
11735;SDS011;5924;51.398;7.088;2023-07-16T02:38:18;2.00;;;1.87;;
11735;SDS011;5924;51.398;7.088;2023-07-16T02:40:44;2.03;;;1.40;;
11735;SDS011;5924;51.398;7.088;2023-07-16T02:43:10;2.37;;;2.17;;
11735;SDS011;5924;51.398;7.088;2023-07-16T02:45:36;1.90;;;1.80;;
11735;SDS011;5924;51.398;7.088;2023-07-16T02:48:02;3.13;;;2.10;;
11735;SDS011;5924;51.398;7.088;2023-07-16T02:50:29;2.27;;;2.00;;
11735;SDS011;5924;51.398;7.088;2023-07-16T02:52:55;20.33;;;2.23;;
11735;SDS011;5924;51.398;7.088;2023-07-16T02:55:20;2.60;;;2.10;;
11735;SDS011;5924;51.398;7.088;2023-07-16T02:57:46;3.00;;;2.73;;
11735;SDS011;5924;51.398;7.088;2023-07-16T03:00:12;3.40;;;2.00;;
11735;SDS011;5924;51.398;7.088;2023-07-16T03:02:38;2.70;;;1.83;;
11735;SDS011;5924;51.398;7.088;2023-07-16T03:05:03;2.00;;;1.53;;
11735;SDS011;5924;51.398;7.088;2023-07-16T03:07:29;2.43;;;2.20;;
11735;SDS011;5924;51.398;7.088;2023-07-16T03:09:55;3.13;;;2.23;;
11735;SDS011;5924;51.398;7.088;2023-07-16T03:12:20;3.50;;;2.27;;
11735;SDS011;5924;51.398;7.088;2023-07-16T03:14:46;3.17;;;1.60;;
11735;SDS011;5924;51.398;7.088;2023-07-16T03:17:12;4.30;;;2.00;;
11735;SDS011;5924;51.398;7.088;2023-07-16T03:19:38;2.93;;;1.80;;
11735;SDS011;5924;51.398;7.088;2023-07-16T03:22:03;5.33;;;1.90;;
11735;SDS011;5924;51.398;7.088;2023-07-16T03:24:29;2.57;;;2.37;;
11735;SDS011;5924;51.398;7.088;2023-07-16T03:26:55;9.50;;;1.90;;
11735;SDS011;5924;51.398;7.088;2023-07-16T03:29:20;1.73;;;1.63;;
11735;SDS011;5924;51.398;7.088;2023-07-16T03:31:46;1.90;;;1.80;;
11735;SDS011;5924;51.398;7.088;2023-07-16T03:34:12;1.60;;;1.50;;
11735;SDS011;5924;51.398;7.088;2023-07-16T03:36:37;1.70;;;1.60;;
11735;SDS011;5924;51.398;7.088;2023-07-16T03:39:03;7.03;;;1.70;;
11735;SDS011;5924;51.398;7.088;2023-07-16T03:41:28;1.60;;;1.60;;
11735;SDS011;5924;51.398;7.088;2023-07-16T03:43:54;1.73;;;1.67;;
11735;SDS011;5924;51.398;7.088;2023-07-16T03:46:20;2.20;;;1.80;;
11735;SDS011;5924;51.398;7.088;2023-07-16T03:48:45;4.20;;;2.30;;
11735;SDS011;5924;51.398;7.088;2023-07-16T03:51:11;2.10;;;2.10;;
11735;SDS011;5924;51.398;7.088;2023-07-16T03:53:37;5.03;;;2.00;;
11735;SDS011;5924;51.398;7.088;2023-07-16T03:56:03;2.80;;;1.87;;
11735;SDS011;5924;51.398;7.088;2023-07-16T03:58:29;4.97;;;2.53;;
11735;SDS011;5924;51.398;7.088;2023-07-16T04:00:54;1.90;;;1.80;;
11735;SDS011;5924;51.398;7.088;2023-07-16T04:03:20;3.43;;;1.90;;
11735;SDS011;5924;51.398;7.088;2023-07-16T04:05:46;2.07;;;1.43;;
11735;SDS011;5924;51.398;7.088;2023-07-16T04:08:12;6.43;;;2.30;;
11735;SDS011;5924;51.398;7.088;2023-07-16T04:10:38;1.87;;;1.77;;
11735;SDS011;5924;51.398;7.088;2023-07-16T04:13:04;3.67;;;1.77;;
11735;SDS011;5924;51.398;7.088;2023-07-16T04:15:29;7.83;;;2.27;;
11735;SDS011;5924;51.398;7.088;2023-07-16T04:17:55;2.20;;;1.83;;
11735;SDS011;5924;51.398;7.088;2023-07-16T04:20:21;2.20;;;1.67;;
11735;SDS011;5924;51.398;7.088;2023-07-16T04:22:46;4.50;;;2.80;;
11735;SDS011;5924;51.398;7.088;2023-07-16T04:25:12;2.40;;;1.80;;
11735;SDS011;5924;51.398;7.088;2023-07-16T04:27:39;2.83;;;2.10;;
11735;SDS011;5924;51.398;7.088;2023-07-16T04:30:06;5.67;;;2.70;;
11735;SDS011;5924;51.398;7.088;2023-07-16T04:32:32;3.07;;;2.00;;
11735;SDS011;5924;51.398;7.088;2023-07-16T04:34:58;2.40;;;2.30;;
11735;SDS011;5924;51.398;7.088;2023-07-16T04:37:24;2.23;;;2.13;;
11735;SDS011;5924;51.398;7.088;2023-07-16T04:39:50;2.43;;;2.30;;
11735;SDS011;5924;51.398;7.088;2023-07-16T04:42:15;2.57;;;2.47;;
11735;SDS011;5924;51.398;7.088;2023-07-16T04:44:41;2.80;;;2.80;;
11735;SDS011;5924;51.398;7.088;2023-07-16T04:47:07;2.73;;;2.20;;
11735;SDS011;5924;51.398;7.088;2023-07-16T04:49:34;5.90;;;2.07;;
11735;SDS011;5924;51.398;7.088;2023-07-16T04:52:00;3.13;;;2.10;;
11735;SDS011;5924;51.398;7.088;2023-07-16T04:54:25;7.80;;;2.07;;
11735;SDS011;5924;51.398;7.088;2023-07-16T04:56:51;2.20;;;2.10;;
11735;SDS011;5924;51.398;7.088;2023-07-16T04:59:17;3.80;;;2.50;;
11735;SDS011;5924;51.398;7.088;2023-07-16T05:01:42;7.67;;;3.17;;
11735;SDS011;5924;51.398;7.088;2023-07-16T05:04:08;6.43;;;2.60;;
11735;SDS011;5924;51.398;7.088;2023-07-16T05:06:33;3.30;;;2.80;;
11735;SDS011;5924;51.398;7.088;2023-07-16T05:08:59;2.30;;;2.17;;
11735;SDS011;5924;51.398;7.088;2023-07-16T05:11:25;2.47;;;2.27;;
11735;SDS011;5924;51.398;7.088;2023-07-16T05:13:51;2.97;;;2.77;;
11735;SDS011;5924;51.398;7.088;2023-07-16T05:16:16;2.60;;;2.43;;
11735;SDS011;5924;51.398;7.088;2023-07-16T05:18:42;2.87;;;2.50;;
11735;SDS011;5924;51.398;7.088;2023-07-16T05:21:08;3.23;;;2.90;;
11735;SDS011;5924;51.398;7.088;2023-07-16T05:23:33;2.20;;;2.00;;
11735;SDS011;5924;51.398;7.088;2023-07-16T05:25:59;5.20;;;2.10;;
11735;SDS011;5924;51.398;7.088;2023-07-16T05:28:24;3.77;;;2.50;;
11735;SDS011;5924;51.398;7.088;2023-07-16T05:31:00;2.50;;;2.30;;
11735;SDS011;5924;51.398;7.088;2023-07-16T05:33:28;6.23;;;2.77;;
11735;SDS011;5924;51.398;7.088;2023-07-16T05:35:54;2.93;;;2.20;;
11735;SDS011;5924;51.398;7.088;2023-07-16T05:38:20;4.30;;;2.10;;
11735;SDS011;5924;51.398;7.088;2023-07-16T05:40:46;3.40;;;2.03;;
11735;SDS011;5924;51.398;7.088;2023-07-16T05:43:11;3.40;;;2.60;;
11735;SDS011;5924;51.398;7.088;2023-07-16T05:45:38;5.03;;;2.27;;
11735;SDS011;5924;51.398;7.088;2023-07-16T05:48:04;6.33;;;2.60;;
11735;SDS011;5924;51.398;7.088;2023-07-16T05:50:29;2.80;;;2.60;;
11735;SDS011;5924;51.398;7.088;2023-07-16T05:52:55;2.57;;;2.40;;
11735;SDS011;5924;51.398;7.088;2023-07-16T05:55:21;3.33;;;3.10;;
11735;SDS011;5924;51.398;7.088;2023-07-16T05:57:46;2.37;;;2.27;;
11735;SDS011;5924;51.398;7.088;2023-07-16T06:00:12;7.70;;;4.10;;
11735;SDS011;5924;51.398;7.088;2023-07-16T06:02:38;3.93;;;3.37;;
11735;SDS011;5924;51.398;7.088;2023-07-16T06:05:05;3.27;;;2.97;;
11735;SDS011;5924;51.398;7.088;2023-07-16T06:07:31;3.23;;;2.93;;
11735;SDS011;5924;51.398;7.088;2023-07-16T06:09:57;4.13;;;3.90;;
11735;SDS011;5924;51.398;7.088;2023-07-16T06:12:23;4.13;;;2.87;;
11735;SDS011;5924;51.398;7.088;2023-07-16T06:14:49;3.20;;;3.00;;
11735;SDS011;5924;51.398;7.088;2023-07-16T06:17:15;7.10;;;3.47;;
11735;SDS011;5924;51.398;7.088;2023-07-16T06:19:40;4.53;;;3.40;;
11735;SDS011;5924;51.398;7.088;2023-07-16T06:22:06;4.00;;;3.20;;
11735;SDS011;5924;51.398;7.088;2023-07-16T06:24:34;6.30;;;3.33;;
11735;SDS011;5924;51.398;7.088;2023-07-16T06:27:00;5.17;;;3.83;;
11735;SDS011;5924;51.398;7.088;2023-07-16T06:29:26;5.70;;;3.53;;
11735;SDS011;5924;51.398;7.088;2023-07-16T06:31:55;3.80;;;3.60;;
11735;SDS011;5924;51.398;7.088;2023-07-16T06:34:22;3.37;;;3.00;;
11735;SDS011;5924;51.398;7.088;2023-07-16T06:36:48;4.33;;;3.70;;
11735;SDS011;5924;51.398;7.088;2023-07-16T06:39:14;3.60;;;3.30;;
11735;SDS011;5924;51.398;7.088;2023-07-16T06:41:39;4.20;;;3.80;;
11735;SDS011;5924;51.398;7.088;2023-07-16T06:44:05;3.63;;;3.47;;
11735;SDS011;5924;51.398;7.088;2023-07-16T06:46:31;5.13;;;3.67;;
11735;SDS011;5924;51.398;7.088;2023-07-16T06:48:56;4.47;;;3.70;;
11735;SDS011;5924;51.398;7.088;2023-07-16T06:51:22;4.13;;;3.80;;
11735;SDS011;5924;51.398;7.088;2023-07-16T06:53:48;8.50;;;4.70;;
11735;SDS011;5924;51.398;7.088;2023-07-16T06:56:14;4.50;;;4.27;;
11735;SDS011;5924;51.398;7.088;2023-07-16T06:58:40;4.40;;;4.00;;
11735;SDS011;5924;51.398;7.088;2023-07-16T07:01:05;7.83;;;4.00;;
11735;SDS011;5924;51.398;7.088;2023-07-16T07:03:31;5.60;;;4.00;;
11735;SDS011;5924;51.398;7.088;2023-07-16T07:05:58;6.10;;;3.73;;
11735;SDS011;5924;51.398;7.088;2023-07-16T07:08:27;13.23;;;4.70;;
11735;SDS011;5924;51.398;7.088;2023-07-16T07:10:53;6.17;;;3.97;;
11735;SDS011;5924;51.398;7.088;2023-07-16T07:13:18;7.43;;;4.73;;
11735;SDS011;5924;51.398;7.088;2023-07-16T07:15:44;6.47;;;4.37;;
11735;SDS011;5924;51.398;7.088;2023-07-16T07:18:10;6.93;;;4.20;;
11735;SDS011;5924;51.398;7.088;2023-07-16T07:20:35;4.43;;;3.90;;
11735;SDS011;5924;51.398;7.088;2023-07-16T07:23:01;5.13;;;3.73;;
11735;SDS011;5924;51.398;7.088;2023-07-16T07:25:28;4.63;;;4.07;;
11735;SDS011;5924;51.398;7.088;2023-07-16T07:27:54;4.20;;;4.00;;
11735;SDS011;5924;51.398;7.088;2023-07-16T07:30:20;5.13;;;4.17;;
11735;SDS011;5924;51.398;7.088;2023-07-16T07:32:45;4.97;;;4.00;;
11735;SDS011;5924;51.398;7.088;2023-07-16T07:35:11;5.47;;;4.37;;
11735;SDS011;5924;51.398;7.088;2023-07-16T07:37:37;6.13;;;4.47;;
11735;SDS011;5924;51.398;7.088;2023-07-16T07:40:02;6.63;;;4.17;;
11735;SDS011;5924;51.398;7.088;2023-07-16T07:42:29;4.50;;;4.30;;
11735;SDS011;5924;51.398;7.088;2023-07-16T07:44:55;4.30;;;3.90;;
11735;SDS011;5924;51.398;7.088;2023-07-16T07:47:20;5.63;;;4.17;;
11735;SDS011;5924;51.398;7.088;2023-07-16T07:49:46;4.47;;;3.77;;
11735;SDS011;5924;51.398;7.088;2023-07-16T07:52:12;4.50;;;4.30;;
11735;SDS011;5924;51.398;7.088;2023-07-16T07:54:37;4.80;;;4.40;;
11735;SDS011;5924;51.398;7.088;2023-07-16T07:57:03;3.83;;;3.60;;
11735;SDS011;5924;51.398;7.088;2023-07-16T07:59:30;5.80;;;4.30;;
11735;SDS011;5924;51.398;7.088;2023-07-16T08:01:56;5.30;;;4.13;;
11735;SDS011;5924;51.398;7.088;2023-07-16T08:04:23;6.73;;;4.87;;
11735;SDS011;5924;51.398;7.088;2023-07-16T08:06:49;4.37;;;3.97;;
11735;SDS011;5924;51.398;7.088;2023-07-16T08:09:16;7.13;;;4.23;;
11735;SDS011;5924;51.398;7.088;2023-07-16T08:11:41;10.70;;;4.33;;
11735;SDS011;5924;51.398;7.088;2023-07-16T08:14:07;5.50;;;3.70;;
11735;SDS011;5924;51.398;7.088;2023-07-16T08:16:33;4.37;;;3.80;;
11735;SDS011;5924;51.398;7.088;2023-07-16T08:18:58;5.63;;;4.10;;
11735;SDS011;5924;51.398;7.088;2023-07-16T08:21:24;10.60;;;4.43;;
11735;SDS011;5924;51.398;7.088;2023-07-16T08:23:50;4.77;;;4.37;;
11735;SDS011;5924;51.398;7.088;2023-07-16T08:26:17;4.17;;;3.77;;
11735;SDS011;5924;51.398;7.088;2023-07-16T08:28:43;6.10;;;4.20;;
11735;SDS011;5924;51.398;7.088;2023-07-16T08:31:12;6.63;;;4.33;;
11735;SDS011;5924;51.398;7.088;2023-07-16T08:33:40;4.20;;;4.00;;
11735;SDS011;5924;51.398;7.088;2023-07-16T08:36:06;5.27;;;4.40;;
11735;SDS011;5924;51.398;7.088;2023-07-16T08:38:32;9.93;;;4.40;;
11735;SDS011;5924;51.398;7.088;2023-07-16T08:40:59;4.50;;;4.20;;
11735;SDS011;5924;51.398;7.088;2023-07-16T08:43:25;6.33;;;3.90;;
11735;SDS011;5924;51.398;7.088;2023-07-16T08:45:52;3.77;;;3.47;;
11735;SDS011;5924;51.398;7.088;2023-07-16T08:48:18;4.33;;;3.90;;
11735;SDS011;5924;51.398;7.088;2023-07-16T08:50:46;3.90;;;3.60;;
11735;SDS011;5924;51.398;7.088;2023-07-16T08:53:14;4.20;;;3.90;;
11735;SDS011;5924;51.398;7.088;2023-07-16T08:55:41;3.53;;;3.33;;
11735;SDS011;5924;51.398;7.088;2023-07-16T08:58:09;4.40;;;4.00;;
11735;SDS011;5924;51.398;7.088;2023-07-16T09:00:36;7.60;;;4.00;;
11735;SDS011;5924;51.398;7.088;2023-07-16T09:03:03;7.60;;;3.50;;
11735;SDS011;5924;51.398;7.088;2023-07-16T09:05:29;6.00;;;3.60;;
11735;SDS011;5924;51.398;7.088;2023-07-16T09:07:55;5.33;;;4.03;;
11735;SDS011;5924;51.398;7.088;2023-07-16T09:10:20;6.13;;;3.70;;
11735;SDS011;5924;51.398;7.088;2023-07-16T09:12:46;5.50;;;3.60;;
11735;SDS011;5924;51.398;7.088;2023-07-16T09:15:13;5.27;;;3.13;;
11735;SDS011;5924;51.398;7.088;2023-07-16T09:17:46;8.07;;;3.40;;
11735;SDS011;5924;51.398;7.088;2023-07-16T09:20:14;3.80;;;3.47;;
11735;SDS011;5924;51.398;7.088;2023-07-16T09:22:41;3.93;;;3.60;;
11735;SDS011;5924;51.398;7.088;2023-07-16T09:25:06;4.50;;;3.87;;
11735;SDS011;5924;51.398;7.088;2023-07-16T09:27:32;4.03;;;3.67;;
11735;SDS011;5924;51.398;7.088;2023-07-16T09:29:58;5.67;;;3.70;;
11735;SDS011;5924;51.398;7.088;2023-07-16T09:32:38;4.53;;;3.57;;
11735;SDS011;5924;51.398;7.088;2023-07-16T09:35:10;4.47;;;3.43;;
11735;SDS011;5924;51.398;7.088;2023-07-16T09:37:40;5.90;;;3.80;;
11735;SDS011;5924;51.398;7.088;2023-07-16T09:40:07;4.27;;;3.23;;
11735;SDS011;5924;51.398;7.088;2023-07-16T09:42:38;4.50;;;3.50;;
11735;SDS011;5924;51.398;7.088;2023-07-16T09:45:08;3.97;;;3.70;;
11735;SDS011;5924;51.398;7.088;2023-07-16T09:47:41;3.67;;;3.37;;
11735;SDS011;5924;51.398;7.088;2023-07-16T09:50:07;4.23;;;3.20;;
11735;SDS011;5924;51.398;7.088;2023-07-16T09:52:34;4.20;;;3.20;;
11735;SDS011;5924;51.398;7.088;2023-07-16T09:55:00;3.23;;;2.93;;
11735;SDS011;5924;51.398;7.088;2023-07-16T09:57:28;4.90;;;3.13;;
11735;SDS011;5924;51.398;7.088;2023-07-16T10:00:00;3.33;;;3.20;;
11735;SDS011;5924;51.398;7.088;2023-07-16T10:02:33;6.23;;;3.13;;
11735;SDS011;5924;51.398;7.088;2023-07-16T10:05:10;3.60;;;3.30;;
11735;SDS011;5924;51.398;7.088;2023-07-16T10:07:36;4.93;;;3.93;;
11735;SDS011;5924;51.398;7.088;2023-07-16T10:10:02;4.20;;;3.80;;
11735;SDS011;5924;51.398;7.088;2023-07-16T10:12:37;6.57;;;3.80;;
11735;SDS011;5924;51.398;7.088;2023-07-16T10:15:03;6.60;;;3.80;;
11735;SDS011;5924;51.398;7.088;2023-07-16T10:17:31;3.70;;;3.40;;
11735;SDS011;5924;51.398;7.088;2023-07-16T10:20:09;4.03;;;3.53;;
11735;SDS011;5924;51.398;7.088;2023-07-16T10:25:02;3.70;;;3.43;;
11735;SDS011;5924;51.398;7.088;2023-07-16T10:27:29;2.90;;;2.67;;
11735;SDS011;5924;51.398;7.088;2023-07-16T10:29:56;3.53;;;3.33;;
11735;SDS011;5924;51.398;7.088;2023-07-16T10:32:22;3.30;;;3.20;;
11735;SDS011;5924;51.398;7.088;2023-07-16T10:34:52;3.40;;;3.30;;
11735;SDS011;5924;51.398;7.088;2023-07-16T10:37:17;3.43;;;3.23;;
11735;SDS011;5924;51.398;7.088;2023-07-16T10:39:46;3.43;;;3.13;;
11735;SDS011;5924;51.398;7.088;2023-07-16T10:42:13;4.37;;;3.50;;
11735;SDS011;5924;51.398;7.088;2023-07-16T10:44:41;3.97;;;3.57;;
11735;SDS011;5924;51.398;7.088;2023-07-16T10:47:08;3.10;;;2.90;;
11735;SDS011;5924;51.398;7.088;2023-07-16T10:49:35;3.73;;;3.43;;
11735;SDS011;5924;51.398;7.088;2023-07-16T10:52:01;3.50;;;3.30;;
11735;SDS011;5924;51.398;7.088;2023-07-16T10:54:27;4.20;;;3.30;;
11735;SDS011;5924;51.398;7.088;2023-07-16T10:56:52;4.07;;;3.67;;
11735;SDS011;5924;51.398;7.088;2023-07-16T10:59:18;8.50;;;4.87;;
11735;SDS011;5924;51.398;7.088;2023-07-16T11:01:44;3.77;;;2.77;;
11735;SDS011;5924;51.398;7.088;2023-07-16T11:04:10;2.60;;;2.47;;
11735;SDS011;5924;51.398;7.088;2023-07-16T11:06:36;8.60;;;3.60;;
11735;SDS011;5924;51.398;7.088;2023-07-16T11:09:08;3.33;;;3.03;;
11735;SDS011;5924;51.398;7.088;2023-07-16T11:11:34;3.07;;;2.83;;
11735;SDS011;5924;51.398;7.088;2023-07-16T11:14:02;3.07;;;2.73;;
11735;SDS011;5924;51.398;7.088;2023-07-16T11:16:33;2.97;;;2.77;;
11735;SDS011;5924;51.398;7.088;2023-07-16T11:19:01;3.13;;;2.93;;
11735;SDS011;5924;51.398;7.088;2023-07-16T11:21:33;3.67;;;3.00;;
11735;SDS011;5924;51.398;7.088;2023-07-16T11:24:14;3.67;;;3.37;;
11735;SDS011;5924;51.398;7.088;2023-07-16T11:26:49;3.53;;;3.00;;
11735;SDS011;5924;51.398;7.088;2023-07-16T11:29:18;3.00;;;2.80;;
11735;SDS011;5924;51.398;7.088;2023-07-16T11:31:44;6.70;;;3.40;;
11735;SDS011;5924;51.398;7.088;2023-07-16T11:34:19;3.00;;;2.90;;
11735;SDS011;5924;51.398;7.088;2023-07-16T11:36:46;4.17;;;2.80;;
11735;SDS011;5924;51.398;7.088;2023-07-16T11:39:12;5.17;;;3.17;;
11735;SDS011;5924;51.398;7.088;2023-07-16T11:41:38;2.90;;;2.70;;
11735;SDS011;5924;51.398;7.088;2023-07-16T11:44:04;3.67;;;3.27;;
11735;SDS011;5924;51.398;7.088;2023-07-16T11:46:32;3.87;;;3.33;;
11735;SDS011;5924;51.398;7.088;2023-07-16T11:49:02;3.03;;;2.90;;
11735;SDS011;5924;51.398;7.088;2023-07-16T11:51:28;4.30;;;4.00;;
11735;SDS011;5924;51.398;7.088;2023-07-16T11:53:55;6.17;;;3.23;;
11735;SDS011;5924;51.398;7.088;2023-07-16T11:56:22;7.40;;;3.40;;
11735;SDS011;5924;51.398;7.088;2023-07-16T11:58:48;5.87;;;3.17;;
11735;SDS011;5924;51.398;7.088;2023-07-16T12:01:14;3.07;;;2.97;;
11735;SDS011;5924;51.398;7.088;2023-07-16T12:03:40;4.23;;;2.70;;
11735;SDS011;5924;51.398;7.088;2023-07-16T12:06:06;4.40;;;2.90;;
11735;SDS011;5924;51.398;7.088;2023-07-16T12:08:33;3.03;;;2.93;;
11735;SDS011;5924;51.398;7.088;2023-07-16T12:10:58;5.13;;;2.80;;
11735;SDS011;5924;51.398;7.088;2023-07-16T12:13:24;3.07;;;2.87;;
11735;SDS011;5924;51.398;7.088;2023-07-16T12:15:50;5.97;;;2.70;;
11735;SDS011;5924;51.398;7.088;2023-07-16T12:18:15;4.33;;;2.90;;
11735;SDS011;5924;51.398;7.088;2023-07-16T12:20:41;3.57;;;2.70;;
11735;SDS011;5924;51.398;7.088;2023-07-16T12:23:07;3.40;;;3.20;;
11735;SDS011;5924;51.398;7.088;2023-07-16T12:25:32;6.27;;;3.23;;
11735;SDS011;5924;51.398;7.088;2023-07-16T12:27:59;3.50;;;3.20;;
11735;SDS011;5924;51.398;7.088;2023-07-16T12:30:27;3.17;;;2.90;;
11735;SDS011;5924;51.398;7.088;2023-07-16T12:32:52;2.63;;;2.50;;
11735;SDS011;5924;51.398;7.088;2023-07-16T12:35:18;3.40;;;3.10;;
11735;SDS011;5924;51.398;7.088;2023-07-16T12:37:44;2.83;;;2.67;;
11735;SDS011;5924;51.398;7.088;2023-07-16T12:40:09;5.80;;;3.17;;
11735;SDS011;5924;51.398;7.088;2023-07-16T12:42:35;3.77;;;3.17;;
11735;SDS011;5924;51.398;7.088;2023-07-16T12:45:01;6.33;;;3.70;;
11735;SDS011;5924;51.398;7.088;2023-07-16T12:47:27;3.20;;;2.90;;
11735;SDS011;5924;51.398;7.088;2023-07-16T12:49:53;2.70;;;2.60;;
11735;SDS011;5924;51.398;7.088;2023-07-16T12:52:18;4.00;;;2.87;;
11735;SDS011;5924;51.398;7.088;2023-07-16T12:54:44;3.10;;;2.80;;
11735;SDS011;5924;51.398;7.088;2023-07-16T12:57:11;3.20;;;2.70;;
11735;SDS011;5924;51.398;7.088;2023-07-16T12:59:36;4.10;;;3.07;;
11735;SDS011;5924;51.398;7.088;2023-07-16T13:02:02;8.20;;;3.10;;
11735;SDS011;5924;51.398;7.088;2023-07-16T13:04:28;4.30;;;2.60;;
11735;SDS011;5924;51.398;7.088;2023-07-16T13:06:54;2.60;;;2.40;;
11735;SDS011;5924;51.398;7.088;2023-07-16T13:09:19;3.10;;;3.00;;
11735;SDS011;5924;51.398;7.088;2023-07-16T13:11:45;2.70;;;2.50;;
11735;SDS011;5924;51.398;7.088;2023-07-16T13:14:11;3.20;;;2.87;;
11735;SDS011;5924;51.398;7.088;2023-07-16T13:16:36;4.10;;;3.20;;
11735;SDS011;5924;51.398;7.088;2023-07-16T13:19:02;3.17;;;2.97;;
11735;SDS011;5924;51.398;7.088;2023-07-16T13:21:27;2.97;;;2.77;;
11735;SDS011;5924;51.398;7.088;2023-07-16T13:23:53;4.87;;;3.37;;
11735;SDS011;5924;51.398;7.088;2023-07-16T13:26:19;3.17;;;2.90;;
11735;SDS011;5924;51.398;7.088;2023-07-16T13:28:45;2.80;;;2.70;;
11735;SDS011;5924;51.398;7.088;2023-07-16T13:31:10;4.03;;;2.37;;
11735;SDS011;5924;51.398;7.088;2023-07-16T13:33:36;3.47;;;2.70;;
11735;SDS011;5924;51.398;7.088;2023-07-16T13:36:02;3.60;;;3.40;;
11735;SDS011;5924;51.398;7.088;2023-07-16T13:38:29;6.00;;;3.07;;
11735;SDS011;5924;51.398;7.088;2023-07-16T13:40:56;2.87;;;2.77;;
11735;SDS011;5924;51.398;7.088;2023-07-16T13:43:21;3.23;;;3.13;;
11735;SDS011;5924;51.398;7.088;2023-07-16T13:45:47;4.73;;;3.23;;
11735;SDS011;5924;51.398;7.088;2023-07-16T13:48:13;7.73;;;3.43;;
11735;SDS011;5924;51.398;7.088;2023-07-16T13:50:38;4.93;;;3.37;;
11735;SDS011;5924;51.398;7.088;2023-07-16T13:53:04;3.03;;;2.83;;
11735;SDS011;5924;51.398;7.088;2023-07-16T13:55:30;2.90;;;2.80;;
11735;SDS011;5924;51.398;7.088;2023-07-16T13:57:55;3.47;;;3.27;;
11735;SDS011;5924;51.398;7.088;2023-07-16T14:00:21;4.00;;;3.00;;
11735;SDS011;5924;51.398;7.088;2023-07-16T14:02:47;3.93;;;3.57;;
11735;SDS011;5924;51.398;7.088;2023-07-16T14:05:13;3.30;;;3.20;;
11735;SDS011;5924;51.398;7.088;2023-07-16T14:07:39;3.47;;;3.30;;
11735;SDS011;5924;51.398;7.088;2023-07-16T14:10:04;4.93;;;3.63;;
11735;SDS011;5924;51.398;7.088;2023-07-16T14:12:31;3.40;;;3.07;;
11735;SDS011;5924;51.398;7.088;2023-07-16T14:14:56;4.00;;;3.27;;
11735;SDS011;5924;51.398;7.088;2023-07-16T14:17:22;3.20;;;3.00;;
11735;SDS011;5924;51.398;7.088;2023-07-16T14:19:49;3.17;;;3.03;;
11735;SDS011;5924;51.398;7.088;2023-07-16T14:22:14;3.97;;;3.37;;
11735;SDS011;5924;51.398;7.088;2023-07-16T14:24:40;3.13;;;2.93;;
11735;SDS011;5924;51.398;7.088;2023-07-16T14:27:07;10.33;;;3.47;;
11735;SDS011;5924;51.398;7.088;2023-07-16T14:29:34;3.87;;;3.57;;
11735;SDS011;5924;51.398;7.088;2023-07-16T14:32:00;3.70;;;3.40;;
11735;SDS011;5924;51.398;7.088;2023-07-16T14:34:26;3.30;;;3.07;;
11735;SDS011;5924;51.398;7.088;2023-07-16T14:36:52;4.67;;;2.70;;
11735;SDS011;5924;51.398;7.088;2023-07-16T14:39:18;3.77;;;3.47;;
11735;SDS011;5924;51.398;7.088;2023-07-16T14:41:44;2.60;;;2.50;;
11735;SDS011;5924;51.398;7.088;2023-07-16T14:44:10;2.93;;;2.77;;
11735;SDS011;5924;51.398;7.088;2023-07-16T14:46:36;3.30;;;3.10;;
11735;SDS011;5924;51.398;7.088;2023-07-16T14:49:02;4.43;;;3.10;;
11735;SDS011;5924;51.398;7.088;2023-07-16T14:51:28;4.30;;;3.43;;
11735;SDS011;5924;51.398;7.088;2023-07-16T14:53:55;8.90;;;2.70;;
11735;SDS011;5924;51.398;7.088;2023-07-16T14:56:21;4.13;;;3.10;;
11735;SDS011;5924;51.398;7.088;2023-07-16T14:58:47;2.97;;;2.77;;
11735;SDS011;5924;51.398;7.088;2023-07-16T15:01:13;3.13;;;2.93;;
11735;SDS011;5924;51.398;7.088;2023-07-16T15:03:39;2.60;;;2.37;;
11735;SDS011;5924;51.398;7.088;2023-07-16T15:06:06;3.20;;;3.00;;
11735;SDS011;5924;51.398;7.088;2023-07-16T15:08:31;2.70;;;2.60;;